Time;durP1;ratioP1;P1;durP2;ratioP2;P2;SDS_P1;SDS_P2;PMS_P1;PMS_P2;Temp;Humidity;BMP_temperature;BMP_pressure;BME280_temperature;BME280_humidity;BME280_pressure;Samples;Min_cycle;Max_cycle;Signal;HPM_P1;HPM_P2
2023/04/05 08:45:45;;;;;;;3.20;1.73;;;11.10;36.30;;;;;;6092593;23;20393;-79
2023/04/05 08:48:12;;;;;;;3.92;1.67;;;11.20;35.60;;;;;;6068171;23;20377;-78
2023/04/05 08:50:39;;;;;;;2.95;1.60;;;11.40;35.40;;;;;;6067591;23;20420;-78
2023/04/05 08:53:09;;;;;;;2.83;1.67;;;11.40;33.50;;;;;;6068301;23;20459;-79
2023/04/05 08:55:38;;;;;;;2.92;1.65;;;11.40;33.70;;;;;;6092481;23;20863;-79
2023/04/05 08:58:13;;;;;;;3.50;1.58;;;11.40;33.90;;;;;;6093539;23;20750;-79
2023/04/05 09:00:41;;;;;;;3.03;1.67;;;11.60;34.50;;;;;;6066955;23;20385;-78
2023/04/05 09:03:16;;;;;;;3.00;1.70;;;11.60;34.50;;;;;;6050630;23;20438;-79
2023/04/05 09:05:49;;;;;;;20.27;5.50;;;11.70;34.80;;;;;;6038929;23;20730;-78
2023/04/05 09:08:16;;;;;;;183.73;42.45;;;11.80;34.80;;;;;;6064520;23;20399;-79
2023/04/05 09:10:44;;;;;;;17.75;5.25;;;11.90;34.00;;;;;;6062348;23;20391;-79
2023/04/05 09:13:10;;;;;;;4.28;2.13;;;11.90;34.10;;;;;;6063261;23;20516;-79
2023/04/05 09:15:38;;;;;;;3.58;2.10;;;12.00;33.80;;;;;;6062465;23;20438;-79
2023/04/05 09:18:05;;;;;;;2.70;1.77;;;11.90;34.60;;;;;;6063957;23;20854;-79
2023/04/05 09:20:45;;;;;;;3.67;1.65;;;11.90;34.50;;;;;;6063470;23;20371;-79
2023/04/05 09:23:12;;;;;;;3.70;1.80;;;12.10;33.60;;;;;;6063427;23;20403;-79
2023/04/05 09:25:41;;;;;;;3.53;1.60;;;12.20;35.20;;;;;;6061497;23;20413;-79
2023/04/05 09:28:09;;;;;;;3.83;2.10;;;12.10;33.90;;;;;;6039887;23;20383;-79
2023/04/05 09:30:36;;;;;;;2.95;1.92;;;12.20;33.60;;;;;;6038651;23;20383;-79
2023/04/05 09:33:06;;;;;;;4.78;2.15;;;12.30;32.50;;;;;;6063553;23;20383;-79
2023/04/05 09:35:36;;;;;;;2.25;1.73;;;12.40;34.30;;;;;;6038443;23;20458;-79
2023/04/05 09:38:06;;;;;;;3.05;1.80;;;12.70;33.90;;;;;;6040114;23;20379;-82
2023/04/05 09:40:50;;;;;;;5.30;1.70;;;12.80;34.50;;;;;;6063518;23;20778;-82
2023/04/05 09:43:37;;;;;;;2.38;1.88;;;12.90;32.20;;;;;;6038614;23;20407;-83
2023/04/05 09:46:05;;;;;;;2.70;1.85;;;12.90;32.20;;;;;;6062627;23;20422;-83
2023/04/05 09:48:46;;;;;;;2.58;1.70;;;13.00;32.10;;;;;;6038596;23;20381;-83
2023/04/05 09:51:14;;;;;;;3.45;2.00;;;12.90;31.40;;;;;;6074704;23;20382;-83
2023/04/05 09:54:04;;;;;;;3.25;1.90;;;13.10;32.90;;;;;;6060300;23;20379;-83
2023/04/05 09:56:40;;;;;;;3.58;2.00;;;13.20;31.80;;;;;;6061394;23;20398;-82
2023/04/05 09:59:10;;;;;;;4.80;2.10;;;13.20;32.60;;;;;;6062100;23;20434;-81
2023/04/05 10:01:51;;;;;;;4.07;1.80;;;13.30;31.90;;;;;;6063734;23;20750;-83
2023/04/05 10:04:23;;;;;;;1.98;1.60;;;13.20;31.60;;;;;;6062755;23;20375;-82
2023/04/05 10:06:50;;;;;;;2.85;2.10;;;13.20;31.00;;;;;;6063037;23;20419;-82
2023/04/05 10:09:18;;;;;;;2.90;1.95;;;13.20;31.10;;;;;;6062638;23;20690;-82
2023/04/05 10:11:45;;;;;;;3.03;1.90;;;13.30;31.40;;;;;;6062370;23;20395;-83
2023/04/05 10:14:12;;;;;;;2.95;1.90;;;13.50;33.20;;;;;;6062461;23;20762;-82
2023/04/05 10:16:58;;;;;;;4.15;1.83;;;13.70;31.00;;;;;;6064464;23;20379;-83
2023/04/05 10:19:54;;;;;;;3.53;2.22;;;13.60;31.20;;;;;;6062445;23;20395;-82
2023/04/05 10:22:50;;;;;;;2.67;2.23;;;13.60;31.00;;;;;;6062887;23;20931;-82
2023/04/05 10:25:32;;;;;;;2.90;1.80;;;13.40;32.30;;;;;;6050003;23;20416;-82
2023/04/05 10:28:17;;;;;;;3.17;2.10;;;13.50;32.10;;;;;;6062919;23;20705;-82
2023/04/05 10:30:48;;;;;;;2.28;1.98;;;13.40;31.10;;;;;;6061971;23;20375;-82
2023/04/05 10:33:42;;;;;;;4.50;2.00;;;13.50;33.20;;;;;;6063240;23;20375;-81
2023/04/05 10:36:37;;;;;;;3.10;2.03;;;13.80;31.70;;;;;;6062433;23;20431;-81
2023/04/05 10:39:22;;;;;;;2.05;1.85;;;13.80;30.00;;;;;;6062409;23;21897;-81
2023/04/05 10:41:53;;;;;;;5.93;2.65;;;13.90;30.60;;;;;;6061113;23;20454;-82
2023/04/05 10:44:20;;;;;;;3.40;2.20;;;13.80;30.50;;;;;;6087036;23;20709;-82
2023/04/05 10:46:53;;;;;;;4.65;2.30;;;13.90;32.40;;;;;;6062509;23;20383;-81
2023/04/05 10:49:39;;;;;;;4.25;2.08;;;14.00;30.80;;;;;;6063435;23;20379;-81
2023/04/05 10:52:06;;;;;;;4.15;2.08;;;14.20;30.10;;;;;;6063899;23;20372;-82
2023/04/05 10:54:35;;;;;;;2.60;1.63;;;14.20;30.50;;;;;;6087216;23;20446;-82
2023/04/05 10:57:06;;;;;;;4.28;2.05;;;14.30;30.90;;;;;;6061874;23;20378;-81
2023/04/05 10:59:40;;;;;;;4.07;2.22;;;14.60;32.40;;;;;;6063040;23;20466;-81
2023/04/05 11:02:08;;;;;;;3.80;2.42;;;14.70;30.50;;;;;;6061558;23;20435;-81
2023/04/05 11:04:38;;;;;;;2.67;2.05;;;14.80;30.20;;;;;;6062718;23;20458;-81
2023/04/05 11:07:14;;;;;;;2.97;2.10;;;15.00;30.00;;;;;;6061684;23;20382;-81
2023/04/05 11:09:51;;;;;;;2.13;1.90;;;14.70;28.70;;;;;;6062748;23;20387;-81
2023/04/05 11:12:18;;;;;;;3.70;2.40;;;14.50;29.90;;;;;;6065805;23;20374;-82
2023/04/05 11:14:45;;;;;;;3.75;2.60;;;14.50;30.80;;;;;;6064683;23;20462;-81
2023/04/05 11:17:25;;;;;;;4.90;2.80;;;14.50;29.90;;;;;;6063704;23;20414;-81
2023/04/05 11:20:10;;;;;;;3.65;2.58;;;14.30;30.80;;;;;;6064232;23;20391;-82
2023/04/05 11:22:37;;;;;;;2.65;2.17;;;14.40;31.30;;;;;;6065578;23;20374;-81
2023/04/05 11:25:05;;;;;;;4.35;2.58;;;14.40;30.00;;;;;;6064334;23;20398;-81
2023/04/05 11:27:36;;;;;;;4.63;2.30;;;14.20;30.60;;;;;;6064896;23;20697;-81
2023/04/05 11:30:04;;;;;;;3.70;2.53;;;14.10;30.90;;;;;;6064620;23;20442;-82
2023/04/05 11:32:40;;;;;;;3.25;2.20;;;14.20;31.90;;;;;;6063932;23;20387;-80
2023/04/05 11:35:17;;;;;;;4.47;2.30;;;14.60;32.80;;;;;;6063853;23;20441;-81
2023/04/05 11:38:08;;;;;;;6.82;2.88;;;14.80;30.70;;;;;;6063854;23;20399;-79
2023/04/05 11:40:39;;;;;;;4.07;1.90;;;14.90;31.00;;;;;;6063201;23;20410;-81
2023/04/05 11:43:08;;;;;;;3.38;2.33;;;15.00;30.50;;;;;;6067765;23;20385;-81
2023/04/05 11:45:40;;;;;;;3.50;2.13;;;14.90;30.50;;;;;;6068266;23;20377;-83
2023/04/05 11:48:13;;;;;;;6.00;2.40;;;14.90;30.10;;;;;;6069769;23;20779;-82
2023/04/05 11:50:40;;;;;;;3.10;2.20;;;14.70;29.50;;;;;;6068411;23;20405;-81
2023/04/05 11:53:18;;;;;;;2.83;2.28;;;14.50;29.40;;;;;;6091838;23;20373;-82
2023/04/05 11:55:46;;;;;;;3.58;2.25;;;14.30;30.00;;;;;;6091266;23;20456;-82
2023/04/05 11:58:20;;;;;;;4.40;2.30;;;14.20;30.40;;;;;;6068910;23;20397;-81
2023/04/05 12:00:58;;;;;;;4.50;2.60;;;14.30;31.70;;;;;;6069038;23;20460;-81
2023/04/05 12:03:29;;;;;;;2.58;2.38;;;14.30;30.40;;;;;;6068310;23;20381;-82
2023/04/05 12:06:02;;;;;;;4.40;2.60;;;14.50;31.40;;;;;;6069356;23;20389;-81
2023/04/05 12:08:48;;;;;;;3.90;2.67;;;14.60;29.90;;;;;;6068291;23;20378;-80
2023/04/05 12:11:24;;;;;;;3.75;2.50;;;14.70;30.30;;;;;;6069213;23;20386;-82
2023/04/05 12:13:58;;;;;;;3.33;2.25;;;14.90;29.80;;;;;;6067996;23;20834;-81
2023/04/05 12:16:26;;;;;;;3.70;2.53;;;14.80;30.80;;;;;;6069433;23;20382;-83
2023/04/05 12:18:55;;;;;;;3.00;2.17;;;14.60;29.60;;;;;;6068434;23;20759;-81
2023/04/05 12:21:22;;;;;;;3.67;2.75;;;14.60;31.40;;;;;;6069329;23;20821;-81
2023/04/05 12:23:50;;;;;;;4.35;2.30;;;14.70;30.50;;;;;;6068203;23;20369;-80
2023/04/05 12:26:18;;;;;;;4.80;2.20;;;14.90;32.10;;;;;;6069532;23;20385;-81
2023/04/05 12:28:56;;;;;;;4.07;2.42;;;15.30;30.20;;;;;;6092278;23;20387;-81
2023/04/05 12:31:40;;;;;;;3.35;2.40;;;15.50;31.90;;;;;;6068511;23;20392;-81
2023/04/05 12:34:08;;;;;;;3.20;2.15;;;15.70;30.70;;;;;;6092484;23;20424;-82
2023/04/05 12:36:37;;;;;;;3.23;2.60;;;15.90;31.10;;;;;;6067450;23;20385;-82
2023/04/05 12:39:09;;;;;;;3.53;2.17;;;16.20;30.50;;;;;;6092047;23;20452;-81
2023/04/05 12:41:36;;;;;;;3.03;2.25;;;16.40;31.30;;;;;;6068279;23;20443;-81
2023/04/05 12:44:29;;;;;;;3.80;2.22;;;16.50;30.10;;;;;;6092132;23;20946;-81
2023/04/05 12:47:04;;;;;;;3.30;2.38;;;16.80;29.80;;;;;;6067888;23;20385;-81
2023/04/05 12:49:36;;;;;;;3.83;2.28;;;16.80;29.20;;;;;;6069108;23;20397;-81
2023/04/05 12:52:03;;;;;;;5.55;2.60;;;16.90;29.10;;;;;;6067287;23;20409;-81
2023/04/05 12:54:31;;;;;;;2.53;2.22;;;16.80;28.40;;;;;;6093824;23;20476;-83
2023/04/05 12:57:00;;;;;;;3.03;2.50;;;16.70;29.00;;;;;;6090086;23;20381;-82
2023/04/05 12:59:27;;;;;;;5.45;2.70;;;16.60;28.80;;;;;;6069074;23;20381;-80
2023/04/05 13:01:54;;;;;;;4.13;2.75;;;16.50;29.20;;;;;;6090709;23;20385;-81
2023/04/05 13:04:21;;;;;;;4.00;2.60;;;16.30;28.90;;;;;;6093018;23;20388;-81
2023/04/05 13:06:49;;;;;;;3.17;2.08;;;16.20;28.80;;;;;;6090199;23;20490;-81
2023/04/05 13:09:16;;;;;;;3.22;2.50;;;16.00;28.90;;;;;;6092919;23;20406;-81
2023/04/05 13:11:42;;;;;;;3.90;2.20;;;16.00;29.00;;;;;;6092486;23;20404;-81
2023/04/05 13:14:09;;;;;;;2.78;2.28;;;16.00;29.60;;;;;;6066562;23;20789;-81
2023/04/05 13:16:36;;;;;;;4.30;2.92;;;16.10;30.50;;;;;;6092330;23;20416;-82
2023/04/05 13:19:03;;;;;;;5.18;3.20;;;16.10;28.40;;;;;;6090854;23;20412;-80
2023/04/05 13:21:31;;;;;;;4.57;2.47;;;15.80;29.10;;;;;;6092636;23;20393;-81
2023/04/05 13:23:58;;;;;;;5.13;2.83;;;15.50;29.70;;;;;;6092606;23;20452;-80
2023/04/05 13:26:25;;;;;;;3.80;3.00;;;15.60;30.30;;;;;;6067857;23;20409;-82
2023/04/05 13:28:52;;;;;;;4.90;2.70;;;15.50;30.00;;;;;;6090916;23;20456;-81
2023/04/05 13:31:19;;;;;;;4.38;2.90;;;15.40;29.90;;;;;;6091685;23;20706;-81
2023/04/05 13:33:46;;;;;;;4.70;2.88;;;15.30;29.80;;;;;;6091070;23;20381;-81
2023/04/05 13:36:12;;;;;;;3.78;2.83;;;15.10;29.60;;;;;;6091323;23;20428;-81
2023/04/05 13:38:40;;;;;;;3.77;2.70;;;14.90;30.00;;;;;;6091931;23;20381;-81
2023/04/05 13:41:07;;;;;;;4.13;2.90;;;14.80;30.50;;;;;;6091806;23;20727;-81
2023/04/05 13:43:34;;;;;;;4.90;3.20;;;15.00;30.80;;;;;;6091491;23;20452;-82
2023/04/05 13:46:01;;;;;;;3.43;2.70;;;15.20;30.50;;;;;;6066875;23;20389;-81
2023/04/05 13:48:28;;;;;;;5.13;2.90;;;15.30;30.10;;;;;;6093250;23;20429;-81
2023/04/05 13:50:55;;;;;;;3.95;2.85;;;15.60;31.20;;;;;;6090974;23;20391;-82
2023/04/05 13:53:22;;;;;;;4.40;2.63;;;15.80;29.60;;;;;;6067964;23;20430;-82
2023/04/05 13:55:52;;;;;;;4.55;3.20;;;16.00;29.60;;;;;;6068437;23;20873;-80
2023/04/05 13:58:19;;;;;;;3.15;2.28;;;16.50;29.30;;;;;;6091605;23;20839;-82
2023/04/05 14:00:46;;;;;;;4.17;2.73;;;17.10;28.80;;;;;;6068750;23;20386;-82
2023/04/05 14:03:13;;;;;;;6.32;3.08;;;17.30;29.10;;;;;;6090852;23;20393;-81
2023/04/05 14:05:40;;;;;;;3.77;2.87;;;17.20;28.20;;;;;;6092693;23;20377;-81
2023/04/05 14:08:07;;;;;;;6.18;2.97;;;17.10;27.80;;;;;;6090023;23;20384;-82
2023/04/05 14:10:34;;;;;;;5.80;2.88;;;17.30;28.50;;;;;;6091880;23;20449;-82
2023/04/05 14:13:01;;;;;;;5.50;3.25;;;17.40;28.00;;;;;;6091338;23;20752;-82
2023/04/05 14:15:28;;;;;;;7.32;3.30;;;17.40;28.10;;;;;;6091808;23;20373;-81
2023/04/05 14:17:55;;;;;;;4.23;2.80;;;17.40;28.60;;;;;;6090227;23;20411;-81
2023/04/05 14:20:22;;;;;;;6.30;3.27;;;17.60;28.50;;;;;;6091846;23;20456;-82
2023/04/05 14:22:49;;;;;;;3.90;3.30;;;17.60;28.00;;;;;;6091033;23;20964;-81
2023/04/05 14:25:16;;;;;;;4.83;3.00;;;17.30;27.80;;;;;;6091214;23;20475;-82
2023/04/05 14:27:43;;;;;;;4.60;3.40;;;17.10;28.50;;;;;;6091248;23;20469;-81
2023/04/05 14:30:11;;;;;;;5.63;3.42;;;17.20;29.20;;;;;;6090863;23;20692;-81
2023/04/05 14:32:39;;;;;;;5.07;2.80;;;17.20;28.70;;;;;;6068327;23;20381;-82
2023/04/05 14:35:06;;;;;;;6.28;3.40;;;17.50;28.60;;;;;;6091822;23;20380;-82
2023/04/05 14:37:33;;;;;;;4.13;3.20;;;17.80;27.70;;;;;;6068322;23;20377;-84
2023/04/05 14:40:00;;;;;;;5.90;3.70;;;17.90;27.90;;;;;;6091270;23;20381;-83
2023/04/05 14:42:27;;;;;;;4.22;3.17;;;17.50;27.50;;;;;;6092059;23;20703;-82
2023/04/05 14:45:14;;;;;;;4.78;3.58;;;17.30;28.30;;;;;;6091499;23;20409;-83
2023/04/05 14:47:40;;;;;;;5.90;3.53;;;17.20;29.00;;;;;;6093823;23;20440;-83
2023/04/05 14:50:08;;;;;;;4.53;2.90;;;17.10;28.60;;;;;;6093024;23;20415;-81
2023/04/05 14:52:36;;;;;;;4.18;2.90;;;17.20;28.80;;;;;;6070256;23;20751;-82
2023/04/05 14:55:03;;;;;;;5.63;3.80;;;17.40;29.10;;;;;;6093068;23;20374;-80
2023/04/05 14:57:30;;;;;;;4.97;3.50;;;17.40;28.00;;;;;;6069871;23;20700;-81
2023/04/05 14:59:57;;;;;;;5.33;3.53;;;17.20;28.00;;;;;;6093351;23;20442;-82
2023/04/05 15:02:24;;;;;;;5.70;4.07;;;17.20;28.50;;;;;;6092276;23;20413;-82
2023/04/05 15:04:51;;;;;;;6.85;4.30;;;17.10;28.10;;;;;;6093454;23;20389;-83
2023/04/05 15:07:18;;;;;;;5.45;4.13;;;16.90;28.60;;;;;;6092269;23;20377;-80
2023/04/05 15:09:45;;;;;;;7.82;4.18;;;16.50;28.60;;;;;;6093958;23;20755;-83
2023/04/05 15:12:12;;;;;;;6.38;3.88;;;16.40;29.10;;;;;;6091407;23;20460;-82
2023/04/05 15:14:39;;;;;;;3.85;3.40;;;16.40;29.70;;;;;;6092548;23;20478;-81
2023/04/05 15:17:06;;;;;;;4.32;3.70;;;16.70;29.20;;;;;;6091792;23;20775;-84
2023/04/05 15:19:34;;;;;;;4.63;3.50;;;17.00;29.00;;;;;;6093511;23;20373;-82
2023/04/05 15:22:01;;;;;;;6.18;3.72;;;17.10;28.50;;;;;;6092380;23;20397;-81
2023/04/05 15:24:28;;;;;;;6.30;4.00;;;17.10;28.70;;;;;;6093163;23;20378;-82
2023/04/05 15:27:00;;;;;;;4.55;3.60;;;17.10;28.30;;;;;;6093557;23;20419;-82
2023/04/05 15:29:28;;;;;;;5.05;3.63;;;16.90;28.40;;;;;;6093217;23;20432;-81
2023/04/05 15:31:56;;;;;;;3.47;3.10;;;16.90;28.90;;;;;;6094525;23;20378;-83
2023/04/05 15:34:27;;;;;;;7.10;3.85;;;16.90;28.90;;;;;;6069648;23;20374;-82
2023/04/05 15:36:54;;;;;;;6.05;3.70;;;17.00;28.90;;;;;;6069770;23;20386;-82
2023/04/05 15:39:22;;;;;;;3.97;3.33;;;17.00;29.00;;;;;;6068895;23;20715;-82
2023/04/05 15:41:50;;;;;;;7.43;4.18;;;17.30;29.00;;;;;;6069834;23;20385;-81
2023/04/05 15:44:17;;;;;;;4.57;3.40;;;17.30;28.10;;;;;;6068916;23;20707;-82
2023/04/05 15:46:44;;;;;;;5.35;3.72;;;17.30;28.50;;;;;;6093921;23;20457;-82
2023/04/05 15:49:11;;;;;;;6.20;3.60;;;17.30;28.50;;;;;;6092590;23;20377;-82
2023/04/05 15:51:42;;;;;;;5.03;3.70;;;17.20;28.50;;;;;;6094682;23;20382;-82
2023/04/05 15:54:09;;;;;;;6.68;3.60;;;17.30;28.30;;;;;;6092929;23;20460;-82
2023/04/05 15:56:36;;;;;;;5.20;3.80;;;17.50;28.30;;;;;;6092596;23;20393;-82
2023/04/05 15:59:03;;;;;;;6.47;4.00;;;17.40;28.10;;;;;;6093045;23;20865;-80
2023/04/05 16:01:31;;;;;;;7.03;4.20;;;17.40;28.10;;;;;;6092335;23;20810;-82
2023/04/05 16:03:58;;;;;;;14.63;8.52;;;17.20;28.40;;;;;;6094489;23;20405;-80
2023/04/05 16:06:27;;;;;;;6.97;4.57;;;17.30;28.40;;;;;;6091265;23;20385;-80
2023/04/05 16:08:54;;;;;;;7.97;4.88;;;17.10;28.00;;;;;;6092716;23;20385;-79
2023/04/05 16:11:21;;;;;;;16.87;13.70;;;16.80;28.30;;;;;;6092660;23;20374;-80
2023/04/05 16:13:48;;;;;;;4.78;4.32;;;16.50;28.90;;;;;;6069112;23;20385;-81
2023/04/05 16:16:16;;;;;;;6.53;4.45;;;16.40;28.90;;;;;;6089690;23;20381;-81
2023/04/05 16:19:01;;;;;;;5.03;4.30;;;16.40;29.10;;;;;;6093111;23;20440;-82
2023/04/05 16:21:29;;;;;;;6.05;3.53;;;16.30;28.90;;;;;;6093396;23;20707;-82
2023/04/05 16:23:59;;;;;;;5.20;4.07;;;16.50;29.20;;;;;;6068880;23;20384;-81
2023/04/05 16:26:26;;;;;;;7.65;4.30;;;16.50;29.00;;;;;;6091616;23;20385;-82
2023/04/05 16:28:53;;;;;;;4.90;4.10;;;16.70;29.10;;;;;;6092961;23;20760;-82
2023/04/05 16:31:20;;;;;;;5.40;3.78;;;16.70;29.00;;;;;;6092291;23;20685;-82
2023/04/05 16:33:47;;;;;;;4.47;3.65;;;16.60;28.70;;;;;;6092662;23;20436;-82
2023/04/05 16:36:14;;;;;;;4.77;4.00;;;16.60;28.90;;;;;;6092386;23;20373;-82
2023/04/05 16:38:42;;;;;;;7.75;3.78;;;16.70;29.30;;;;;;6092737;23;20410;-82
2023/04/05 16:41:12;;;;;;;6.80;3.60;;;16.80;28.80;;;;;;6092093;23;20472;-81
2023/04/05 16:43:39;;;;;;;5.75;4.20;;;16.80;28.70;;;;;;6040072;23;20750;-82
2023/04/05 16:46:06;;;;;;;5.88;4.90;;;16.60;29.00;;;;;;6063866;23;20441;-82
2023/04/05 16:48:33;;;;;;;9.13;4.90;;;16.60;29.00;;;;;;6063265;23;20390;-82
2023/04/05 16:51:01;;;;;;;6.72;4.47;;;16.30;29.00;;;;;;6064766;23;20399;-82
2023/04/05 16:53:29;;;;;;;7.93;4.45;;;16.20;29.40;;;;;;6063258;23;20750;-82
2023/04/05 16:55:56;;;;;;;5.00;4.13;;;16.00;29.90;;;;;;6040118;23;20379;-82
2023/04/05 16:58:23;;;;;;;7.20;4.35;;;16.00;30.10;;;;;;6064199;23;20390;-82
2023/04/05 17:00:54;;;;;;;6.20;4.70;;;15.90;30.10;;;;;;6063796;23;20375;-82
2023/04/05 17:03:21;;;;;;;7.95;5.22;;;15.80;30.10;;;;;;6062923;23;20391;-81
2023/04/05 17:05:48;;;;;;;44.10;26.57;;;15.70;30.20;;;;;;6064071;23;20384;-82
2023/04/05 17:08:15;;;;;;;12.83;6.53;;;15.50;30.00;;;;;;6086305;23;20419;-81
2023/04/05 17:10:42;;;;;;;7.43;4.68;;;15.40;31.00;;;;;;6064103;23;20367;-83
2023/04/05 17:13:09;;;;;;;8.55;4.90;;;15.20;31.20;;;;;;6064003;23;20430;-81
2023/04/05 17:15:37;;;;;;;5.27;4.40;;;15.00;31.00;;;;;;6064473;23;20537;-81
2023/04/05 17:18:05;;;;;;;6.75;4.25;;;14.90;31.60;;;;;;6063734;23;20379;-81
2023/04/05 17:20:32;;;;;;;9.00;4.83;;;14.70;32.00;;;;;;6063384;23;20387;-82
2023/04/05 17:22:59;;;;;;;7.05;4.85;;;14.50;32.00;;;;;;6063220;23;20687;-83
2023/04/05 17:25:26;;;;;;;8.07;5.15;;;14.40;32.40;;;;;;6063387;23;20383;-83
2023/04/05 17:27:53;;;;;;;9.85;5.72;;;14.20;32.00;;;;;;6063288;23;20730;-81
2023/04/05 17:30:21;;;;;;;7.60;5.20;;;14.00;32.60;;;;;;6062801;23;20383;-81
2023/04/05 17:32:48;;;;;;;9.63;8.30;;;13.80;32.90;;;;;;6063475;23;20398;-79
2023/04/05 17:35:15;;;;;;;10.93;7.63;;;13.70;33.00;;;;;;6062581;23;20435;-80
2023/04/05 17:37:42;;;;;;;10.10;7.60;;;13.50;33.30;;;;;;6064623;23;20399;-83
2023/04/05 17:40:09;;;;;;;8.70;6.10;;;13.40;33.60;;;;;;6060639;23;20450;-82
2023/04/05 17:42:36;;;;;;;8.60;6.25;;;13.20;34.10;;;;;;6062692;23;20442;-81
2023/04/05 17:45:04;;;;;;;9.23;6.95;;;13.10;34.80;;;;;;6087363;23;20409;-80
2023/04/05 17:47:31;;;;;;;10.52;7.70;;;13.10;34.80;;;;;;6061351;23;20378;-82
2023/04/05 17:49:58;;;;;;;9.48;6.93;;;12.90;34.90;;;;;;6063446;23;20470;-81
2023/04/05 17:52:25;;;;;;;9.95;7.22;;;12.90;35.40;;;;;;6062556;23;20447;-82
2023/04/05 17:54:53;;;;;;;10.25;7.30;;;12.80;35.80;;;;;;6063356;23;20371;-82
2023/04/05 17:57:20;;;;;;;8.02;6.38;;;12.80;36.10;;;;;;6061661;23;20383;-81
2023/04/05 17:59:47;;;;;;;9.35;5.78;;;12.80;36.10;;;;;;6063139;23;20387;-81
2023/04/05 18:02:14;;;;;;;9.80;6.53;;;12.70;36.30;;;;;;6062995;23;20446;-82
2023/04/05 18:04:41;;;;;;;10.43;6.55;;;12.60;36.50;;;;;;6061928;23;20952;-83
2023/04/05 18:07:08;;;;;;;9.15;6.97;;;12.50;36.50;;;;;;6063113;23;20383;-82
2023/04/05 18:09:37;;;;;;;12.55;7.50;;;12.40;36.70;;;;;;6062062;23;20713;-82
2023/04/05 18:12:04;;;;;;;8.32;6.30;;;12.30;36.80;;;;;;6087364;23;20710;-82
2023/04/05 18:14:31;;;;;;;9.95;6.18;;;12.20;37.10;;;;;;6062900;23;20387;-82
2023/04/05 18:16:58;;;;;;;10.80;6.23;;;12.20;37.20;;;;;;6063217;23;20378;-81
2023/04/05 18:19:25;;;;;;;8.82;6.40;;;12.00;37.80;;;;;;6062588;23;20816;-82
2023/04/05 18:21:52;;;;;;;8.77;5.90;;;11.90;38.00;;;;;;6063134;23;20393;-82
2023/04/05 18:24:19;;;;;;;9.65;6.65;;;11.80;38.00;;;;;;6062339;23;20430;-82
2023/04/05 18:26:46;;;;;;;8.77;6.07;;;11.80;38.30;;;;;;6063503;23;20410;-82
2023/04/05 18:29:13;;;;;;;8.30;6.45;;;11.70;38.60;;;;;;6063387;23;20381;-82
2023/04/05 18:31:40;;;;;;;7.93;6.18;;;11.50;39.80;;;;;;6061939;23;20371;-81
2023/04/05 18:34:07;;;;;;;7.95;5.57;;;11.30;40.50;;;;;;6063409;23;20415;-82
2023/04/05 18:36:35;;;;;;;8.07;5.75;;;11.20;40.70;;;;;;6085532;23;20386;-82
2023/04/05 18:39:02;;;;;;;8.85;5.70;;;11.10;40.40;;;;;;6063502;23;20387;-82
2023/04/05 18:41:29;;;;;;;11.30;6.30;;;11.00;41.10;;;;;;6062530;23;20394;-82
2023/04/05 18:43:58;;;;;;;9.98;5.70;;;10.90;41.40;;;;;;6062991;23;20908;-82
2023/04/05 18:46:25;;;;;;;12.27;6.05;;;10.70;42.00;;;;;;6085907;23;20375;-83
2023/04/05 18:48:55;;;;;;;7.72;5.63;;;10.60;42.30;;;;;;6062886;23;20446;-82
2023/04/05 18:51:22;;;;;;;8.73;6.18;;;10.60;42.70;;;;;;6062660;23;20383;-80
2023/04/05 18:53:50;;;;;;;6.90;5.35;;;10.50;42.70;;;;;;6063066;23;20762;-82
2023/04/05 18:56:17;;;;;;;9.65;6.10;;;10.50;42.60;;;;;;6063749;23;20399;-82
2023/04/05 18:58:45;;;;;;;10.10;6.40;;;10.40;42.70;;;;;;6061810;23;20363;-82
2023/04/05 19:01:14;;;;;;;10.45;6.50;;;10.30;42.80;;;;;;6064675;23;20398;-82
2023/04/05 19:03:42;;;;;;;9.05;5.88;;;10.20;43.00;;;;;;6062152;23;20391;-83
2023/04/05 19:06:10;;;;;;;8.90;6.25;;;10.10;42.90;;;;;;6063352;23;20407;-83
2023/04/05 19:08:37;;;;;;;9.32;6.20;;;10.00;43.00;;;;;;6063408;23;20435;-83
2023/04/05 19:11:05;;;;;;;8.77;5.93;;;10.00;43.30;;;;;;6063350;23;20383;-83
2023/04/05 19:13:32;;;;;;;10.07;7.80;;;9.90;43.40;;;;;;6060143;23;20411;-83
2023/04/05 19:15:59;;;;;;;9.10;7.00;;;9.80;44.00;;;;;;6063052;23;20387;-84
2023/04/05 19:18:27;;;;;;;13.93;7.88;;;9.70;44.00;;;;;;6061770;23;20765;-84
2023/04/05 19:20:59;;;;;;;11.77;7.30;;;9.60;43.90;;;;;;6063351;23;20366;-84
2023/04/05 19:23:27;;;;;;;9.68;7.38;;;9.60;44.30;;;;;;6085316;23;20419;-83
2023/04/05 19:25:55;;;;;;;10.23;7.30;;;9.50;44.40;;;;;;6062925;23;20386;-83
2023/04/05 19:28:24;;;;;;;11.25;7.50;;;9.50;44.40;;;;;;6062952;23;20784;-83
2023/04/05 19:30:52;;;;;;;14.05;8.10;;;9.40;44.50;;;;;;6039085;23;20378;-82
2023/04/05 19:33:20;;;;;;;17.88;12.40;;;9.30;45.10;;;;;;6064961;23;20694;-83
2023/04/05 19:35:48;;;;;;;17.53;13.50;;;9.00;46.70;;;;;;6063586;23;20733;-83
2023/04/05 19:38:15;;;;;;;13.75;8.63;;;8.90;46.80;;;;;;6064270;23;20382;-83
2023/04/05 19:40:42;;;;;;;10.80;7.63;;;8.90;47.10;;;;;;6063481;23;20418;-84
2023/04/05 19:43:11;;;;;;;11.30;8.15;;;8.80;47.50;;;;;;6091610;23;20387;-84
2023/04/05 19:45:38;;;;;;;23.52;13.65;;;8.70;48.10;;;;;;6068398;23;20404;-84
2023/04/05 19:48:35;;;;;;;13.25;9.50;;;8.60;48.80;;;;;;6093386;23;20385;-83
2023/04/05 19:51:05;;;;;;;11.00;7.53;;;8.50;48.60;;;;;;6068480;23;20390;-82
2023/04/05 19:53:41;;;;;;;11.52;7.45;;;8.40;49.00;;;;;;6069402;23;20374;-83
2023/04/05 19:56:18;;;;;;;10.00;7.00;;;8.40;48.60;;;;;;6093932;23;20672;-83
2023/04/05 19:58:59;;;;;;;8.25;6.60;;;8.30;49.50;;;;;;6067488;23;20688;-84
2023/04/05 20:01:30;;;;;;;9.93;6.93;;;8.30;48.90;;;;;;6069336;23;20754;-84
2023/04/05 20:03:57;;;;;;;9.25;6.60;;;8.20;49.20;;;;;;6067877;23;20413;-83
2023/04/05 20:06:26;;;;;;;9.07;7.25;;;8.20;49.30;;;;;;6069431;23;20461;-83
2023/04/05 20:08:59;;;;;;;10.75;7.82;;;8.20;49.20;;;;;;6092087;23;20388;-83
2023/04/05 20:11:27;;;;;;;10.95;7.90;;;8.20;49.20;;;;;;6070352;23;20456;-83
2023/04/05 20:13:55;;;;;;;10.60;7.88;;;8.10;49.30;;;;;;6069116;23;20380;-83
2023/04/05 20:16:29;;;;;;;10.55;7.70;;;8.00;49.90;;;;;;6093806;23;20775;-83
2023/04/05 20:19:01;;;;;;;10.38;7.50;;;8.00;50.10;;;;;;6069197;23;20388;-84
2023/04/05 20:21:28;;;;;;;13.45;7.35;;;7.90;50.30;;;;;;6069675;23;20385;-84
2023/04/05 20:23:55;;;;;;;9.05;7.03;;;7.90;50.40;;;;;;6092323;23;20386;-86
2023/04/05 20:26:30;;;;;;;8.60;7.30;;;7.90;50.60;;;;;;6093179;23;20381;-85
2023/04/05 20:29:02;;;;;;;9.38;6.47;;;7.80;51.00;;;;;;6092443;23;20381;-85
2023/04/05 20:31:31;;;;;;;8.80;6.50;;;7.70;51.50;;;;;;6068933;23;20384;-84
2023/04/05 20:34:08;;;;;;;9.93;6.70;;;7.60;52.10;;;;;;6068349;23;20377;-84
2023/04/05 20:36:40;;;;;;;13.67;7.30;;;7.50;52.10;;;;;;6069853;23;20755;-84
2023/04/05 20:39:06;;;;;;;12.43;7.55;;;7.50;52.40;;;;;;6068531;23;20385;-83
2023/04/05 20:41:34;;;;;;;12.32;8.00;;;7.40;53.50;;;;;;6093516;23;20373;-84
2023/04/05 20:44:01;;;;;;;10.20;7.60;;;7.30;53.40;;;;;;6090936;23;20393;-86
2023/04/05 20:46:27;;;;;;;11.27;7.65;;;7.30;53.30;;;;;;6094516;23;20436;-83
2023/04/05 20:48:56;;;;;;;10.82;8.05;;;7.20;53.50;;;;;;6092583;23;20437;-85
2023/04/05 20:51:23;;;;;;;11.43;8.07;;;7.20;53.70;;;;;;6094879;23;20373;-84
2023/04/05 20:53:50;;;;;;;11.60;8.13;;;7.10;53.90;;;;;;6092199;23;20499;-83
2023/04/05 20:56:17;;;;;;;10.48;7.63;;;7.10;54.00;;;;;;6092185;23;20382;-84
2023/04/05 20:58:44;;;;;;;11.85;8.00;;;7.10;54.70;;;;;;6092030;23;20381;-84
2023/04/05 21:01:11;;;;;;;12.02;7.53;;;7.00;54.90;;;;;;6091803;23;20376;-83
2023/04/05 21:03:40;;;;;;;9.93;7.72;;;7.00;55.40;;;;;;6092271;23;20381;-83
2023/04/05 21:06:08;;;;;;;9.57;7.45;;;7.00;55.50;;;;;;6068134;23;20464;-84
2023/04/05 21:08:37;;;;;;;10.25;7.93;;;6.90;55.70;;;;;;6044684;23;20405;-84
2023/04/05 21:11:05;;;;;;;15.80;9.38;;;6.80;56.10;;;;;;6067727;23;20378;-84
2023/04/05 21:13:34;;;;;;;14.13;9.77;;;6.70;56.50;;;;;;6068592;23;20373;-83
2023/04/05 21:16:01;;;;;;;18.40;11.55;;;6.60;57.80;;;;;;6092119;23;20732;-83
2023/04/05 21:18:28;;;;;;;20.23;13.10;;;6.50;58.20;;;;;;6092185;23;20430;-84
2023/04/05 21:20:55;;;;;;;20.35;12.88;;;6.40;58.90;;;;;;6091738;23;20381;-83
2023/04/05 21:23:27;;;;;;;13.70;9.85;;;6.40;59.40;;;;;;6092096;23;20401;-83
2023/04/05 21:25:55;;;;;;;11.60;8.13;;;6.30;59.10;;;;;;6092736;23;20748;-84
2023/04/05 21:28:23;;;;;;;12.32;8.18;;;6.30;58.80;;;;;;6068121;23;20381;-84
2023/04/05 21:30:50;;;;;;;10.73;7.88;;;6.30;58.70;;;;;;6068779;23;20468;-84
2023/04/05 21:33:17;;;;;;;13.35;8.30;;;6.20;58.90;;;;;;6092830;23;20373;-83
2023/04/05 21:35:44;;;;;;;9.98;7.93;;;6.20;59.80;;;;;;6092807;23;20374;-84
2023/04/05 21:38:11;;;;;;;12.03;7.80;;;6.20;59.50;;;;;;6091231;23;20385;-84
2023/04/05 21:40:43;;;;;;;10.82;7.15;;;6.10;59.60;;;;;;6092246;23;20697;-84
2023/04/05 21:43:11;;;;;;;9.35;6.63;;;6.00;59.60;;;;;;6090822;23;20396;-83